createdAt,value
2018-01-16T00:00:41.883Z,981.94
2018-01-16T00:01:41.854Z,981.98
2018-01-16T00:02:41.827Z,982
2018-01-16T00:03:41.799Z,981.93
2018-01-16T00:04:41.771Z,982.02
2018-01-16T00:05:41.744Z,981.98
2018-01-16T00:06:41.716Z,981.9
2018-01-16T00:07:41.688Z,981.95
2018-01-16T00:08:41.661Z,981.95
2018-01-16T00:09:41.633Z,981.97
2018-01-16T00:10:41.607Z,982.02
2018-01-16T00:11:41.578Z,982
2018-01-16T00:12:41.550Z,981.99
2018-01-16T00:13:41.524Z,982.02
2018-01-16T00:14:41.495Z,981.94
2018-01-16T00:15:41.468Z,982.02
2018-01-16T00:16:41.442Z,982.01
2018-01-16T00:17:41.419Z,981.94
2018-01-16T00:18:41.388Z,982.11
2018-01-16T00:19:41.359Z,981.97
2018-01-16T00:20:41.331Z,982.05
2018-01-16T00:21:41.305Z,982.16
2018-01-16T00:22:41.277Z,982.14
2018-01-16T00:23:41.249Z,982.11
2018-01-16T00:24:41.223Z,982.15
2018-01-16T00:25:41.195Z,982.06
2018-01-16T00:26:41.166Z,982.02
2018-01-16T00:27:41.140Z,982.13
2018-01-16T00:28:41.111Z,982.04
2018-01-16T00:29:41.085Z,982.2
2018-01-16T00:30:41.056Z,982.28
2018-01-16T00:31:41.030Z,982.2
2018-01-16T00:32:41.003Z,982.15
2018-01-16T00:33:40.976Z,982.31
2018-01-16T00:34:40.948Z,982.2
2018-01-16T00:35:40.921Z,982.27
2018-01-16T00:36:40.894Z,982.19
2018-01-16T00:37:40.864Z,982.32
2018-01-16T00:38:40.839Z,982.22
2018-01-16T00:39:40.810Z,982.27
2018-01-16T00:40:40.783Z,982.24
2018-01-16T00:41:40.754Z,982.21
2018-01-16T00:42:40.730Z,982.18
2018-01-16T00:43:40.701Z,982.2
2018-01-16T00:44:40.674Z,982.17
2018-01-16T00:45:40.646Z,982.14
2018-01-16T00:46:40.620Z,982.18
2018-01-16T00:47:40.592Z,982.15
2018-01-16T00:48:40.564Z,982.15
2018-01-16T00:49:40.536Z,982.16
2018-01-16T00:50:40.510Z,982.22
2018-01-16T00:51:40.481Z,982.25
2018-01-16T00:52:40.454Z,982.24
2018-01-16T00:53:40.426Z,982.36
2018-01-16T00:54:40.400Z,982.37
2018-01-16T00:55:40.374Z,982.23
2018-01-16T00:56:40.345Z,982.41
2018-01-16T00:57:40.318Z,982.31
2018-01-16T00:58:40.312Z,982.58
2018-01-16T00:59:40.263Z,982.45
2018-01-16T01:00:40.237Z,982.55
2018-01-16T01:01:40.209Z,982.6
2018-01-16T01:02:40.183Z,982.57
2018-01-16T01:03:40.154Z,982.57
2018-01-16T01:04:40.126Z,982.64
2018-01-16T01:05:40.100Z,982.63
2018-01-16T01:06:40.072Z,982.67
2018-01-16T01:07:40.045Z,982.63
2018-01-16T01:08:40.019Z,982.63
2018-01-16T01:09:40.375Z,982.51
2018-01-16T01:10:39.961Z,982.56
2018-01-16T01:11:39.933Z,982.57
2018-01-16T01:12:39.907Z,982.64
2018-01-16T01:13:39.879Z,982.61
2018-01-16T01:14:39.860Z,982.52
2018-01-16T01:15:39.824Z,982.59
2018-01-16T01:16:39.796Z,982.68
2018-01-16T01:17:39.771Z,982.61
2018-01-16T01:18:39.745Z,982.62
2018-01-16T01:19:39.714Z,982.6
2018-01-16T01:20:39.688Z,982.68
2018-01-16T01:21:39.658Z,982.98
2018-01-16T01:22:39.631Z,982.65
2018-01-16T01:23:39.604Z,982.8
2018-01-16T01:24:39.578Z,982.61
2018-01-16T01:25:39.547Z,982.66
2018-01-16T01:26:39.520Z,982.68
2018-01-16T01:27:39.495Z,982.72
2018-01-16T01:28:39.465Z,982.74
2018-01-16T01:29:39.438Z,982.74
2018-01-16T01:30:39.410Z,982.65
2018-01-16T01:31:39.382Z,982.73
2018-01-16T01:32:39.354Z,982.76
2018-01-16T01:33:39.328Z,982.64
2018-01-16T01:34:39.300Z,982.79
2018-01-16T01:35:39.273Z,982.6
2018-01-16T01:36:39.262Z,982.72
2018-01-16T01:37:39.217Z,982.7
2018-01-16T01:38:39.189Z,982.77
2018-01-16T01:39:39.163Z,982.71
2018-01-16T01:40:39.135Z,982.57
2018-01-16T01:41:39.106Z,982.61
2018-01-16T01:42:39.080Z,982.62
2018-01-16T01:43:39.052Z,982.59
2018-01-16T01:44:39.024Z,982.59
2018-01-16T01:45:38.995Z,982.5
2018-01-16T01:46:38.969Z,982.66
2018-01-16T01:47:38.941Z,982.49
2018-01-16T01:48:38.914Z,982.65
2018-01-16T01:49:38.885Z,982.54
2018-01-16T01:50:38.857Z,982.55
2018-01-16T01:51:38.831Z,982.61
2018-01-16T01:52:38.805Z,982.63
2018-01-16T01:53:38.776Z,982.51
2018-01-16T01:54:38.748Z,982.49
2018-01-16T01:55:38.723Z,982.5
2018-01-16T01:56:38.693Z,982.51
2018-01-16T01:57:38.666Z,982.44
2018-01-16T01:58:38.638Z,982.51
2018-01-16T01:59:38.612Z,982.43
2018-01-16T02:00:38.582Z,982.46
2018-01-16T02:01:38.554Z,982.48
2018-01-16T02:02:38.525Z,982.45
2018-01-16T02:03:38.498Z,982.44
2018-01-16T02:04:38.477Z,982.45
2018-01-16T02:05:38.445Z,982.43
2018-01-16T02:06:38.420Z,982.4
2018-01-16T02:07:38.388Z,982.41
2018-01-16T02:08:38.362Z,982.34
2018-01-16T02:09:38.333Z,982.3
2018-01-16T02:10:38.304Z,982.31
2018-01-16T02:11:38.278Z,982.27
2018-01-16T02:12:38.251Z,982.27
2018-01-16T02:13:38.223Z,982.3
2018-01-16T02:14:38.194Z,982.37
2018-01-16T02:15:38.167Z,982.34
2018-01-16T02:16:38.138Z,982.41
2018-01-16T02:17:38.111Z,982.31
2018-01-16T02:18:38.084Z,982.22
2018-01-16T02:19:38.056Z,982.25
2018-01-16T02:20:38.027Z,982.28
2018-01-16T02:21:38.001Z,982.24
2018-01-16T02:22:37.972Z,982.21
2018-01-16T02:23:37.944Z,982.2
2018-01-16T02:24:37.919Z,982.27
2018-01-16T02:25:37.890Z,982.26
2018-01-16T02:26:37.863Z,982.23
2018-01-16T02:27:37.834Z,982.18
2018-01-16T02:28:37.806Z,982.19
2018-01-16T02:29:37.780Z,982.16
2018-01-16T02:30:37.752Z,982.14
2018-01-16T02:31:37.725Z,982.14
2018-01-16T02:32:37.699Z,982.07
2018-01-16T02:33:37.669Z,982.09
2018-01-16T02:34:37.641Z,982.07
2018-01-16T02:35:37.614Z,982.01
2018-01-16T02:36:37.587Z,981.94
2018-01-16T02:37:37.559Z,981.87
2018-01-16T02:38:37.529Z,981.86
2018-01-16T02:39:37.502Z,981.81
2018-01-16T02:40:37.476Z,981.84
2018-01-16T02:41:37.449Z,981.75
2018-01-16T02:42:37.419Z,981.76
2018-01-16T02:43:37.450Z,981.69
2018-01-16T02:44:37.365Z,981.8
2018-01-16T02:45:37.337Z,981.79
2018-01-16T02:46:37.311Z,981.93
2018-01-16T02:47:37.283Z,981.95
2018-01-16T02:48:37.254Z,981.94
2018-01-16T02:49:37.227Z,981.87
2018-01-16T02:50:37.200Z,981.86
2018-01-16T02:51:37.172Z,981.76
2018-01-16T02:52:37.146Z,981.73
2018-01-16T02:53:37.116Z,981.77
2018-01-16T02:54:37.090Z,981.82
2018-01-16T02:55:37.062Z,981.81
2018-01-16T02:56:37.035Z,981.81
2018-01-16T02:57:37.007Z,981.81
2018-01-16T02:58:36.980Z,981.76
2018-01-16T02:59:36.953Z,981.74
2018-01-16T03:00:36.927Z,981.77
2018-01-16T03:01:36.909Z,981.76
2018-01-16T03:02:36.871Z,981.75
2018-01-16T03:03:36.849Z,981.82
2018-01-16T03:04:36.817Z,981.72
2018-01-16T03:05:36.790Z,981.67
2018-01-16T03:06:36.763Z,981.69
2018-01-16T03:07:36.734Z,981.68
2018-01-16T03:08:36.707Z,981.69
2018-01-16T03:09:36.679Z,981.69
2018-01-16T03:10:36.652Z,981.74
2018-01-16T03:11:36.626Z,981.72
2018-01-16T03:12:36.599Z,981.7
2018-01-16T03:13:36.572Z,981.71
2018-01-16T03:14:36.545Z,981.68
2018-01-16T03:15:36.518Z,981.65
2018-01-16T03:16:36.491Z,981.6
2018-01-16T03:17:36.464Z,981.57
2018-01-16T03:18:36.437Z,981.58
2018-01-16T03:19:36.411Z,981.64
2018-01-16T03:20:36.382Z,981.64
2018-01-16T03:21:36.357Z,981.62
2018-01-16T03:22:36.328Z,981.63
2018-01-16T03:23:36.302Z,981.69
2018-01-16T03:24:36.274Z,981.58
2018-01-16T03:25:36.248Z,981.63
2018-01-16T03:26:36.229Z,981.62
2018-01-16T03:27:36.194Z,981.56
2018-01-16T03:28:36.166Z,981.53
2018-01-16T03:29:36.138Z,981.57
2018-01-16T03:30:36.112Z,981.49
2018-01-16T03:31:36.085Z,981.48
2018-01-16T03:32:36.057Z,981.39
2018-01-16T03:33:36.033Z,981.48
2018-01-16T03:34:36.006Z,981.31
2018-01-16T03:35:35.977Z,981.32
2018-01-16T03:36:35.949Z,981.34
2018-01-16T03:37:35.923Z,981.37
2018-01-16T03:38:35.894Z,981.32
2018-01-16T03:39:35.874Z,981.36
2018-01-16T03:40:35.840Z,981.33
2018-01-16T03:41:35.815Z,981.32
2018-01-16T03:42:35.788Z,981.29
2018-01-16T03:43:35.762Z,981.26
2018-01-16T03:44:35.734Z,981.24
2018-01-16T03:45:35.708Z,981.19
2018-01-16T03:46:35.685Z,981.16
2018-01-16T03:47:35.654Z,981.15
2018-01-16T03:48:35.629Z,981.16
2018-01-16T03:49:35.601Z,981.04
2018-01-16T03:50:35.575Z,981.04
2018-01-16T03:51:35.548Z,980.98
2018-01-16T03:52:35.525Z,981.18
2018-01-16T03:53:35.495Z,981.2
2018-01-16T03:54:35.468Z,981.29
2018-01-16T03:55:35.440Z,981.2
2018-01-16T03:56:35.414Z,981.19
2018-01-16T03:57:35.387Z,981.26
2018-01-16T03:58:35.359Z,981.12
2018-01-16T03:59:35.334Z,981.18
2018-01-16T04:00:35.307Z,981.19
2018-01-16T04:01:35.281Z,981.08
2018-01-16T04:02:35.254Z,981.16
2018-01-16T04:03:35.225Z,981.09
2018-01-16T04:04:35.200Z,981.07
2018-01-16T04:05:35.174Z,981.04
2018-01-16T04:06:35.144Z,981.11
2018-01-16T04:07:35.119Z,980.98
2018-01-16T04:08:35.091Z,980.99
2018-01-16T04:09:35.063Z,981.01
2018-01-16T04:10:35.038Z,981
2018-01-16T04:11:35.011Z,980.95
2018-01-16T04:12:34.987Z,980.84
2018-01-16T04:13:34.963Z,980.89
2018-01-16T04:14:34.930Z,980.88
2018-01-16T04:15:34.904Z,980.97
2018-01-16T04:16:34.878Z,980.86
2018-01-16T04:17:34.849Z,980.88
2018-01-16T04:18:34.823Z,980.83
2018-01-16T04:19:34.797Z,980.81
2018-01-16T04:20:34.770Z,980.84
2018-01-16T04:21:34.742Z,980.82
2018-01-16T04:22:34.715Z,980.81
2018-01-16T04:23:34.689Z,980.76
2018-01-16T04:24:34.660Z,980.73
2018-01-16T04:25:34.635Z,980.72
2018-01-16T04:26:34.608Z,980.66
2018-01-16T04:27:34.582Z,980.78
2018-01-16T04:28:34.554Z,980.56
2018-01-16T04:29:34.526Z,980.61
2018-01-16T04:30:34.499Z,980.73
2018-01-16T04:31:34.472Z,980.7
2018-01-16T04:32:34.444Z,980.77
2018-01-16T04:33:34.419Z,980.77
2018-01-16T04:34:34.392Z,980.74
2018-01-16T04:35:34.363Z,980.76
2018-01-16T04:36:34.337Z,980.78
2018-01-16T04:37:34.310Z,980.77
2018-01-16T04:38:34.281Z,980.72
2018-01-16T04:39:34.254Z,980.71
2018-01-16T04:40:34.228Z,980.66
2018-01-16T04:41:34.204Z,980.72
2018-01-16T04:42:34.173Z,980.72
2018-01-16T04:43:34.146Z,980.75
2018-01-16T04:44:34.133Z,980.63
2018-01-16T04:45:34.091Z,980.68
2018-01-16T04:46:34.064Z,980.68
2018-01-16T04:47:34.035Z,980.68
2018-01-16T04:48:34.009Z,980.66
2018-01-16T04:49:33.982Z,980.59
2018-01-16T04:50:33.953Z,980.66
2018-01-16T04:51:33.926Z,980.59
2018-01-16T04:52:33.899Z,980.56
2018-01-16T04:53:33.870Z,980.46
2018-01-16T04:54:33.842Z,980.47
2018-01-16T04:55:33.814Z,980.45
2018-01-16T04:56:33.789Z,980.43
2018-01-16T04:57:33.759Z,980.45
2018-01-16T04:58:33.733Z,980.44
2018-01-16T04:59:33.704Z,980.38
2018-01-16T05:00:33.678Z,980.44
2018-01-16T05:01:33.649Z,980.48
2018-01-16T05:02:33.622Z,980.41
2018-01-16T05:03:33.599Z,980.43
2018-01-16T05:04:33.565Z,980.45
2018-01-16T05:05:33.539Z,980.36
2018-01-16T05:06:33.517Z,980.43
2018-01-16T05:07:33.483Z,980.36
2018-01-16T05:08:33.456Z,980.37
2018-01-16T05:09:33.428Z,980.4
2018-01-16T05:10:33.400Z,980.29
2018-01-16T05:11:33.372Z,980.32
2018-01-16T05:12:33.345Z,980.4
2018-01-16T05:13:33.317Z,980.4
2018-01-16T05:14:33.290Z,980.38
2018-01-16T05:15:33.261Z,980.31
2018-01-16T05:16:33.234Z,980.39
2018-01-16T05:17:33.206Z,980.39
2018-01-16T05:18:33.178Z,980.39
2018-01-16T05:19:33.151Z,980.48
2018-01-16T05:20:33.126Z,980.37
2018-01-16T05:21:33.099Z,980.43
2018-01-16T05:22:33.069Z,980.45
2018-01-16T05:23:33.041Z,980.38
2018-01-16T05:24:33.013Z,980.38
2018-01-16T05:25:32.989Z,980.39
2018-01-16T05:26:32.958Z,980.4
2018-01-16T05:27:32.930Z,980.4
2018-01-16T05:28:32.904Z,980.41
2018-01-16T05:29:32.877Z,980.38
2018-01-16T05:30:32.851Z,980.43
2018-01-16T05:31:32.821Z,980.29
2018-01-16T05:32:32.795Z,980.36
2018-01-16T05:34:32.738Z,980.3
2018-01-16T05:35:32.711Z,980.27
2018-01-16T05:36:32.684Z,980.34
2018-01-16T05:37:32.658Z,980.27
2018-01-16T05:38:32.629Z,980.35
2018-01-16T05:39:32.602Z,980.22
2018-01-16T05:40:32.575Z,980.38
2018-01-16T05:41:32.548Z,980.39
2018-01-16T05:42:32.525Z,980.44
2018-01-16T05:43:32.498Z,980.47
2018-01-16T05:44:32.465Z,980.52
2018-01-16T05:45:32.439Z,980.75
2018-01-16T05:46:32.512Z,980.49
2018-01-16T05:47:32.384Z,980.44
2018-01-16T05:48:32.357Z,980.63
2018-01-16T05:49:32.330Z,980.44
2018-01-16T05:50:32.303Z,980.7
2018-01-16T05:51:32.275Z,980.57
2018-01-16T05:52:32.298Z,980.49
2018-01-16T05:53:32.221Z,980.52
2018-01-16T05:54:32.194Z,980.63
2018-01-16T05:55:32.165Z,980.56
2018-01-16T05:56:32.137Z,980.48
2018-01-16T05:57:32.109Z,980.41
2018-01-16T05:58:32.083Z,980.39
2018-01-16T05:59:32.053Z,980.34
2018-01-16T06:00:32.026Z,980.42
2018-01-16T06:01:31.999Z,980.47
2018-01-16T06:02:31.971Z,980.55
2018-01-16T06:03:31.941Z,980.52
2018-01-16T06:04:31.913Z,980.41
2018-01-16T06:05:31.886Z,980.44
2018-01-16T06:06:31.858Z,980.44
2018-01-16T06:07:31.836Z,980.37
2018-01-16T06:08:31.802Z,980.4
2018-01-16T06:09:31.774Z,980.32
2018-01-16T06:10:31.746Z,980.27
2018-01-16T06:11:31.717Z,980.27
2018-01-16T06:12:31.689Z,980.33
2018-01-16T06:13:31.662Z,980.34
2018-01-16T06:14:31.633Z,980.3
2018-01-16T06:15:31.608Z,980.31
2018-01-16T06:16:31.578Z,980.35
2018-01-16T06:17:31.548Z,980.3
2018-01-16T06:18:31.521Z,980.27
2018-01-16T06:19:31.495Z,980.33
2018-01-16T06:20:31.471Z,980.38
2018-01-16T06:21:31.436Z,980.37
2018-01-16T06:22:31.409Z,980.34
2018-01-16T06:23:31.382Z,980.4
2018-01-16T06:24:31.354Z,980.34
2018-01-16T06:25:31.326Z,980.41
2018-01-16T06:26:31.299Z,980.36
2018-01-16T06:27:31.271Z,980.34
2018-01-16T06:28:31.243Z,980.31
2018-01-16T06:29:31.214Z,980.35
2018-01-16T06:30:31.188Z,980.25
2018-01-16T06:31:31.291Z,980.31
2018-01-16T06:32:31.181Z,980.25
2018-01-16T06:33:31.301Z,980.26
2018-01-16T06:34:31.320Z,980.27
2018-01-16T06:35:31.176Z,980.32
2018-01-16T06:36:31.021Z,980.27
2018-01-16T06:37:30.992Z,980.22
2018-01-16T06:38:30.966Z,980.21
2018-01-16T06:39:30.938Z,980.11
2018-01-16T06:40:30.911Z,980.15
2018-01-16T06:41:30.882Z,980.12
2018-01-16T06:42:30.855Z,980.08
2018-01-16T06:43:30.871Z,980.01
2018-01-16T06:44:30.800Z,980.06
2018-01-16T06:45:30.772Z,980.06
2018-01-16T06:46:30.743Z,979.98
2018-01-16T06:47:30.716Z,980.08
2018-01-16T06:48:30.690Z,980.09
2018-01-16T06:49:30.661Z,980.03
2018-01-16T06:50:30.633Z,980.13
2018-01-16T06:51:30.605Z,980.26
2018-01-16T06:52:30.578Z,980.12
2018-01-16T06:53:30.552Z,980.16
2018-01-16T06:54:30.523Z,980.17
2018-01-16T06:55:30.496Z,980.23
2018-01-16T06:56:30.467Z,980.14
2018-01-16T06:57:30.440Z,980.27
2018-01-16T06:58:30.412Z,980.18
2018-01-16T06:59:30.386Z,980.26
2018-01-16T07:00:30.357Z,980.21
2018-01-16T07:01:30.330Z,980.11
2018-01-16T07:02:30.302Z,980.24
2018-01-16T07:03:30.274Z,980.25
2018-01-16T07:04:30.247Z,980.33
2018-01-16T07:05:30.218Z,980.15
2018-01-16T07:06:30.192Z,980.13
2018-01-16T07:07:30.164Z,980.16
2018-01-16T07:08:30.135Z,980.04
2018-01-16T07:09:30.109Z,980.07
2018-01-16T07:10:30.081Z,980.04
2018-01-16T07:11:30.054Z,980.05
2018-01-16T07:12:30.025Z,980
2018-01-16T07:13:29.999Z,979.99
2018-01-16T07:14:29.970Z,980
2018-01-16T07:15:29.943Z,979.96
2018-01-16T07:16:29.916Z,980.12
2018-01-16T07:17:29.887Z,980.2
2018-01-16T07:18:29.861Z,980.27
2018-01-16T07:19:29.832Z,980.45
2018-01-16T07:20:29.805Z,980.44
2018-01-16T07:21:29.778Z,980.52
2018-01-16T07:22:29.761Z,980.44
2018-01-16T07:23:29.721Z,980.47
2018-01-16T07:24:29.694Z,980.5
2018-01-16T07:25:29.666Z,980.43
2018-01-16T07:26:29.645Z,980.42
2018-01-16T07:27:29.610Z,980.4
2018-01-16T07:28:29.582Z,980.52
2018-01-16T07:29:29.555Z,980.46
2018-01-16T07:30:29.525Z,980.43
2018-01-16T07:31:29.497Z,980.46
2018-01-16T07:32:29.469Z,980.42
2018-01-16T07:33:29.442Z,980.36
2018-01-16T07:34:29.414Z,980.39
2018-01-16T07:35:29.386Z,980.35
2018-01-16T07:36:29.357Z,980.36
2018-01-16T07:37:29.329Z,980.26
2018-01-16T07:38:29.302Z,980.35
2018-01-16T07:39:29.274Z,980.27
2018-01-16T07:40:29.245Z,980.27
2018-01-16T07:41:29.216Z,980.23
2018-01-16T07:42:29.188Z,980.25
2018-01-16T07:43:29.160Z,980.21
2018-01-16T07:44:29.132Z,980.22
2018-01-16T07:45:29.104Z,980.15
2018-01-16T07:46:29.077Z,980.19
2018-01-16T07:47:29.050Z,980.19
2018-01-16T07:48:29.026Z,980.22
2018-01-16T07:49:28.992Z,980.15
2018-01-16T07:50:28.965Z,980.19
2018-01-16T07:51:28.938Z,980.09
2018-01-16T07:52:28.909Z,980.1
2018-01-16T07:53:28.882Z,980.12
2018-01-16T07:54:28.853Z,980.16
2018-01-16T07:55:28.826Z,980.15
2018-01-16T07:56:28.798Z,980.13
2018-01-16T07:57:28.771Z,980.16
2018-01-16T07:58:28.742Z,980.17
2018-01-16T07:59:28.715Z,980.18
2018-01-16T08:00:28.687Z,980.17
2018-01-16T08:01:28.660Z,980.05
2018-01-16T08:02:28.632Z,980.13
2018-01-16T08:03:28.602Z,980.11
2018-01-16T08:04:28.576Z,980.18
2018-01-16T08:05:28.548Z,980.18
2018-01-16T08:06:28.800Z,980.22
2018-01-16T08:07:28.622Z,980.18
2018-01-16T08:08:28.633Z,980.14
2018-01-16T08:09:28.445Z,980.08
2018-01-16T08:10:28.734Z,980.18
2018-01-16T08:11:28.891Z,980.06
2018-01-16T08:12:28.557Z,980.07
2018-01-16T08:13:28.550Z,980.09
2018-01-16T08:14:28.300Z,980.05
2018-01-16T08:15:28.582Z,980.04
2018-01-16T08:16:28.424Z,979.99
2018-01-16T08:17:28.418Z,979.94
2018-01-16T08:18:28.449Z,979.92
2018-01-16T08:19:28.399Z,979.93
2018-01-16T08:20:28.401Z,979.74
2018-01-16T08:21:28.381Z,979.88
2018-01-16T08:22:28.318Z,979.88
2018-01-16T08:23:28.241Z,979.89
2018-01-16T08:24:28.237Z,979.91
2018-01-16T08:25:28.212Z,979.92
2018-01-16T08:26:28.160Z,979.97
2018-01-16T08:27:28.179Z,979.91
2018-01-16T08:28:28.226Z,979.84
2018-01-16T08:29:28.142Z,980.03
2018-01-16T08:30:28.151Z,979.98
2018-01-16T08:31:28.109Z,979.99
2018-01-16T08:32:28.055Z,980.03
2018-01-16T08:33:28.042Z,979.96
2018-01-16T08:34:28.044Z,980.02
2018-01-16T08:35:27.976Z,980.02
2018-01-16T08:36:27.916Z,980.04
2018-01-16T08:37:27.969Z,980.03
2018-01-16T08:38:27.799Z,980.04
2018-01-16T08:39:27.861Z,980.05
2018-01-16T08:40:27.878Z,980.13
2018-01-16T08:41:27.828Z,980.03
2018-01-16T08:42:27.835Z,980.1
2018-01-16T08:43:27.865Z,979.96
2018-01-16T08:44:27.733Z,980.08
2018-01-16T08:45:27.678Z,980.05
2018-01-16T08:46:27.783Z,980.02
2018-01-16T08:47:27.688Z,980.11
2018-01-16T08:48:27.598Z,980.08
2018-01-16T08:49:27.530Z,980.05
2018-01-16T08:50:27.523Z,980.04
2018-01-16T08:51:27.462Z,980.18
2018-01-16T08:52:27.525Z,980.02
2018-01-16T08:53:27.434Z,980.03
2018-01-16T08:54:27.388Z,980.02
2018-01-16T08:55:27.342Z,980.05
2018-01-16T08:56:27.381Z,979.97
2018-01-16T08:57:27.404Z,980.04
2018-01-16T08:58:27.343Z,980.17
2018-01-16T08:59:27.316Z,979.95
2018-01-16T09:00:27.248Z,979.99
2018-01-16T09:01:27.220Z,980.01
2018-01-16T09:02:27.198Z,979.91
2018-01-16T09:03:27.196Z,979.97
2018-01-16T09:04:27.221Z,980.03
2018-01-16T09:05:27.318Z,980
2018-01-16T09:06:27.065Z,979.95
2018-01-16T09:07:27.130Z,979.97
2018-01-16T09:08:27.072Z,979.9
2018-01-16T09:09:27.039Z,980
2018-01-16T09:10:27.052Z,979.93
2018-01-16T09:11:26.961Z,979.89
2018-01-16T09:12:26.923Z,979.89
2018-01-16T09:13:26.888Z,979.96
2018-01-16T09:14:26.664Z,979.94
2018-01-16T09:15:26.685Z,979.95
2018-01-16T09:16:26.611Z,979.96
2018-01-16T09:17:26.583Z,979.9
2018-01-16T09:18:26.558Z,979.86
2018-01-16T09:19:26.531Z,979.89
2018-01-16T09:20:26.503Z,979.91
2018-01-16T09:21:26.476Z,979.87
2018-01-16T09:22:26.449Z,979.83
2018-01-16T09:23:26.424Z,979.89
2018-01-16T09:24:26.400Z,979.99
2018-01-16T09:25:26.372Z,979.95
2018-01-16T09:26:26.342Z,979.96
2018-01-16T09:27:26.314Z,980.02
2018-01-16T09:28:26.287Z,979.95
2018-01-16T09:29:26.259Z,980.1
2018-01-16T09:30:26.233Z,980
2018-01-16T09:31:26.208Z,979.82
2018-01-16T09:32:26.178Z,979.91
2018-01-16T09:33:26.153Z,980.01
2018-01-16T09:34:26.125Z,979.95
2018-01-16T09:35:26.098Z,979.98
2018-01-16T09:36:26.091Z,979.94
2018-01-16T09:37:26.044Z,980.08
2018-01-16T09:38:26.015Z,980.03
2018-01-16T09:39:25.990Z,979.9
2018-01-16T09:40:25.963Z,979.84
2018-01-16T09:41:25.979Z,979.91
2018-01-16T09:42:25.908Z,979.87
2018-01-16T09:43:25.884Z,979.75
2018-01-16T09:44:25.856Z,979.9
2018-01-16T09:45:25.828Z,979.89
2018-01-16T09:46:25.802Z,979.99
2018-01-16T09:47:25.776Z,979.93
2018-01-16T09:48:25.748Z,979.83
2018-01-16T09:49:25.721Z,979.85
2018-01-16T09:50:25.694Z,979.93
2018-01-16T09:51:25.667Z,979.92
2018-01-16T09:52:25.641Z,979.94
2018-01-16T09:53:25.614Z,980.06
2018-01-16T09:54:25.588Z,980.1
2018-01-16T09:55:25.560Z,980.15
2018-01-16T09:56:25.534Z,980.24
2018-01-16T09:57:25.506Z,980.71
2018-01-16T09:58:25.481Z,981.99
2018-01-16T09:59:25.453Z,981.67
2018-01-16T10:00:25.425Z,981.76
2018-01-16T10:01:25.399Z,981.55
2018-01-16T10:02:25.472Z,981.72
2018-01-16T10:03:25.604Z,981.7
2018-01-16T10:04:25.387Z,981.52
2018-01-16T10:05:25.409Z,981.56
2018-01-16T10:06:25.258Z,981.65
2018-01-16T10:07:25.229Z,981.56
2018-01-16T10:08:25.199Z,981.53
2018-01-16T10:09:25.419Z,981.72
2018-01-16T10:10:25.142Z,981.69
2018-01-16T10:11:25.114Z,981.58
2018-01-16T10:12:25.082Z,981.6
2018-01-16T10:13:25.052Z,981.53
2018-01-16T10:14:25.035Z,981.55
2018-01-16T10:15:24.994Z,981.5
2018-01-16T10:16:24.964Z,981.51
2018-01-16T10:17:24.935Z,981.29
2018-01-16T10:18:24.904Z,981.36
2018-01-16T10:19:24.874Z,981.43
2018-01-16T10:20:24.845Z,981.44
2018-01-16T10:21:24.815Z,981.53
2018-01-16T10:22:24.783Z,981.62
2018-01-16T10:23:24.755Z,981.5
2018-01-16T10:24:24.728Z,981.55
2018-01-16T10:25:24.694Z,981.49
2018-01-16T10:26:24.664Z,981.42
2018-01-16T10:27:24.634Z,981.41
2018-01-16T10:28:24.604Z,981.37
2018-01-16T10:29:24.810Z,981.38
2018-01-16T10:30:24.544Z,981.39
2018-01-16T10:31:24.513Z,981.47
2018-01-16T10:32:24.484Z,981.46
2018-01-16T10:33:24.453Z,981.42
2018-01-16T10:34:24.439Z,981.49
2018-01-16T10:35:24.419Z,981.46
2018-01-16T10:36:24.363Z,981.42
2018-01-16T10:37:24.435Z,981.49
2018-01-16T10:38:24.303Z,981.48
2018-01-16T10:39:24.274Z,981.42
2018-01-16T10:40:24.244Z,981.44
2018-01-16T10:41:24.215Z,981.43
2018-01-16T10:42:24.425Z,981.58
2018-01-16T10:43:24.156Z,981.44
2018-01-16T10:44:24.125Z,981.48
2018-01-16T10:45:24.095Z,981.57
2018-01-16T10:46:24.066Z,981.6
2018-01-16T10:47:24.037Z,981.61
2018-01-16T10:48:24.008Z,981.69
2018-01-16T10:49:23.978Z,981.7
2018-01-16T10:50:23.950Z,981.74
2018-01-16T10:51:23.920Z,981.75
2018-01-16T10:52:23.890Z,981.79
2018-01-16T10:53:23.861Z,981.84
2018-01-16T10:54:23.833Z,981.85
2018-01-16T10:55:23.803Z,981.96
2018-01-16T10:56:23.774Z,982.03
2018-01-16T10:58:23.754Z,981.82
2018-01-16T10:59:23.688Z,981.84
2018-01-16T11:00:23.658Z,981.81
2018-01-16T11:01:23.629Z,981.81
2018-01-16T11:02:23.599Z,981.81
2018-01-16T11:03:23.570Z,981.8
2018-01-16T11:04:23.541Z,981.81
2018-01-16T11:05:23.513Z,981.94
2018-01-16T11:06:23.483Z,982.03
2018-01-16T11:07:23.453Z,982.05
2018-01-16T11:08:23.424Z,982.07
2018-01-16T11:09:23.395Z,982.06
2018-01-16T11:10:23.366Z,982.09
2018-01-16T11:11:23.649Z,982.06
2018-01-16T11:12:23.309Z,982.12
2018-01-16T11:13:23.364Z,982.04
2018-01-16T11:14:23.249Z,982.13
2018-01-16T11:15:23.222Z,982.15
2018-01-16T11:16:23.192Z,982.09
2018-01-16T11:17:23.162Z,982.12
2018-01-16T11:18:23.135Z,982.14
2018-01-16T11:19:23.107Z,982.05
2018-01-16T11:20:23.080Z,982.05
2018-01-16T11:21:23.050Z,982.04
2018-01-16T11:22:23.021Z,981.98
2018-01-16T11:23:22.992Z,982.01
2018-01-16T11:24:23.065Z,982.02
2018-01-16T11:25:22.936Z,981.91
2018-01-16T11:26:22.913Z,982.01
2018-01-16T11:27:22.882Z,982
2018-01-16T11:28:22.849Z,982.04
2018-01-16T11:29:22.823Z,982.05
2018-01-16T11:30:22.794Z,982.03
2018-01-16T11:31:22.981Z,981.97
2018-01-16T11:32:22.737Z,982.08
2018-01-16T11:33:22.777Z,981.97
2018-01-16T11:34:22.681Z,982.15
2018-01-16T11:35:22.653Z,982.1
2018-01-16T11:36:22.626Z,982.16
2018-01-16T11:37:22.595Z,982.16
2018-01-16T11:38:22.569Z,982.23
2018-01-16T11:39:22.538Z,982.23
2018-01-16T11:40:22.510Z,982.32
2018-01-16T11:41:22.484Z,982.29
2018-01-16T11:42:22.454Z,982.31
2018-01-16T11:43:22.427Z,982.28
2018-01-16T11:44:22.400Z,982.27
2018-01-16T11:45:22.370Z,982.33
2018-01-16T11:46:22.339Z,982.38
2018-01-16T11:47:22.313Z,982.26
2018-01-16T11:48:22.284Z,982.27
2018-01-16T11:49:22.261Z,982.35
2018-01-16T11:50:22.227Z,982.33
2018-01-16T11:51:22.203Z,982.27
2018-01-16T11:52:22.171Z,982.3
2018-01-16T11:53:22.142Z,982.37
2018-01-16T11:54:22.114Z,982.31
2018-01-16T11:55:22.085Z,982.33
2018-01-16T11:56:22.058Z,982.31
2018-01-16T11:57:22.029Z,982.26
2018-01-16T11:58:22.001Z,982.25
2018-01-16T11:59:21.973Z,982.35
2018-01-16T12:00:21.944Z,982.23
2018-01-16T12:01:21.915Z,982.25
2018-01-16T12:02:21.887Z,982.38
2018-01-16T12:03:21.857Z,982.25
2018-01-16T12:04:21.830Z,982.26
2018-01-16T12:05:21.800Z,982.36
2018-01-16T12:06:21.772Z,982.3
2018-01-16T12:07:21.744Z,982.28
2018-01-16T12:08:21.714Z,982.21
2018-01-16T12:09:21.686Z,982.33
2018-01-16T12:10:21.657Z,982.28
2018-01-16T12:11:21.630Z,982.28
2018-01-16T12:12:21.601Z,982.32
2018-01-16T12:13:21.573Z,982.33
2018-01-16T12:14:21.546Z,982.16
2018-01-16T12:15:21.516Z,982.23
2018-01-16T12:16:21.489Z,982.27
2018-01-16T12:17:21.461Z,982.26
2018-01-16T12:18:21.433Z,982.2
2018-01-16T12:19:21.403Z,982.25
2018-01-16T12:20:21.376Z,982.22
2018-01-16T12:21:21.348Z,982.27
2018-01-16T12:22:21.321Z,982.29
2018-01-16T12:23:21.291Z,982.25
2018-01-16T12:24:21.263Z,982.21
2018-01-16T12:25:21.235Z,982.23
2018-01-16T12:26:21.207Z,982.27
2018-01-16T12:27:21.179Z,982.29
2018-01-16T12:28:21.152Z,982.21
2018-01-16T12:29:21.124Z,982.06
2018-01-16T12:30:21.094Z,982.16
2018-01-16T12:31:21.068Z,982.14
2018-01-16T12:32:21.039Z,982.08
2018-01-16T12:33:21.012Z,982.15